sensor_id;sensor_type;location;lat;lon;timestamp;P1;durP1;ratioP1;P2;durP2;ratioP2
34926;SDS011;21132;48.308;14.274;2022-12-10T00:01:05;27.65;;;16.15;;
34926;SDS011;21132;48.308;14.274;2022-12-10T00:03:31;22.67;;;13.90;;
34926;SDS011;21132;48.308;14.274;2022-12-10T00:06:03;21.65;;;12.82;;
34926;SDS011;21132;48.308;14.274;2022-12-10T00:08:31;20.58;;;12.30;;
34926;SDS011;21132;48.308;14.274;2022-12-10T00:10:58;25.05;;;15.07;;
34926;SDS011;21132;48.308;14.274;2022-12-10T00:13:24;24.67;;;15.10;;
34926;SDS011;21132;48.308;14.274;2022-12-10T00:15:50;21.48;;;13.90;;
34926;SDS011;21132;48.308;14.274;2022-12-10T00:18:16;19.92;;;12.45;;
34926;SDS011;21132;48.308;14.274;2022-12-10T00:20:42;18.50;;;12.25;;
34926;SDS011;21132;48.308;14.274;2022-12-10T00:23:08;16.50;;;11.35;;
34926;SDS011;21132;48.308;14.274;2022-12-10T00:25:33;21.33;;;13.90;;
34926;SDS011;21132;48.308;14.274;2022-12-10T00:27:59;25.42;;;15.23;;
34926;SDS011;21132;48.308;14.274;2022-12-10T00:30:25;24.92;;;14.13;;
34926;SDS011;21132;48.308;14.274;2022-12-10T00:32:51;20.27;;;13.27;;
34926;SDS011;21132;48.308;14.274;2022-12-10T00:35:17;22.50;;;13.35;;
34926;SDS011;21132;48.308;14.274;2022-12-10T00:37:43;21.58;;;13.43;;
34926;SDS011;21132;48.308;14.274;2022-12-10T00:40:09;20.90;;;13.00;;
34926;SDS011;21132;48.308;14.274;2022-12-10T00:42:38;19.25;;;12.65;;
34926;SDS011;21132;48.308;14.274;2022-12-10T00:45:04;17.38;;;11.25;;
34926;SDS011;21132;48.308;14.274;2022-12-10T00:47:30;21.25;;;13.02;;
34926;SDS011;21132;48.308;14.274;2022-12-10T00:49:56;20.27;;;11.65;;
34926;SDS011;21132;48.308;14.274;2022-12-10T00:52:22;21.25;;;11.45;;
34926;SDS011;21132;48.308;14.274;2022-12-10T00:54:48;21.02;;;13.27;;
34926;SDS011;21132;48.308;14.274;2022-12-10T00:57:13;24.20;;;12.75;;
34926;SDS011;21132;48.308;14.274;2022-12-10T00:59:39;20.75;;;13.02;;
34926;SDS011;21132;48.308;14.274;2022-12-10T01:02:05;22.42;;;13.65;;
34926;SDS011;21132;48.308;14.274;2022-12-10T01:04:31;21.95;;;13.95;;
34926;SDS011;21132;48.308;14.274;2022-12-10T01:06:57;23.83;;;12.82;;
34926;SDS011;21132;48.308;14.274;2022-12-10T01:09:26;20.75;;;12.48;;
34926;SDS011;21132;48.308;14.274;2022-12-10T01:11:53;17.42;;;11.02;;
34926;SDS011;21132;48.308;14.274;2022-12-10T01:14:23;16.90;;;11.95;;
34926;SDS011;21132;48.308;14.274;2022-12-10T01:16:54;20.45;;;13.13;;
34926;SDS011;21132;48.308;14.274;2022-12-10T01:19:23;23.65;;;14.85;;
34926;SDS011;21132;48.308;14.274;2022-12-10T01:21:50;21.48;;;13.50;;
34926;SDS011;21132;48.308;14.274;2022-12-10T01:24:16;19.45;;;12.65;;
34926;SDS011;21132;48.308;14.274;2022-12-10T01:26:42;18.90;;;13.15;;
34926;SDS011;21132;48.308;14.274;2022-12-10T01:29:09;20.05;;;12.07;;
34926;SDS011;21132;48.308;14.274;2022-12-10T01:31:37;19.77;;;13.40;;
34926;SDS011;21132;48.308;14.274;2022-12-10T01:34:07;19.50;;;12.32;;
34926;SDS011;21132;48.308;14.274;2022-12-10T01:36:37;18.08;;;12.60;;
34926;SDS011;21132;48.308;14.274;2022-12-10T01:39:06;20.65;;;12.57;;
34926;SDS011;21132;48.308;14.274;2022-12-10T01:41:37;19.88;;;12.75;;
34926;SDS011;21132;48.308;14.274;2022-12-10T01:46:33;21.15;;;13.70;;
34926;SDS011;21132;48.308;14.274;2022-12-10T01:49:02;20.33;;;12.88;;
34926;SDS011;21132;48.308;14.274;2022-12-10T01:51:32;21.05;;;13.55;;
34926;SDS011;21132;48.308;14.274;2022-12-10T01:54:00;23.08;;;14.35;;
34926;SDS011;21132;48.308;14.274;2022-12-10T01:56:27;23.92;;;14.75;;
34926;SDS011;21132;48.308;14.274;2022-12-10T01:58:56;24.77;;;14.93;;
34926;SDS011;21132;48.308;14.274;2022-12-10T02:01:44;23.67;;;15.73;;
34926;SDS011;21132;48.308;14.274;2022-12-10T02:15:21;23.15;;;14.55;;
34926;SDS011;21132;48.308;14.274;2022-12-10T02:17:55;23.02;;;14.20;;
34926;SDS011;21132;48.308;14.274;2022-12-10T02:20:31;20.08;;;13.20;;
34926;SDS011;21132;48.308;14.274;2022-12-10T02:23:08;21.92;;;13.65;;
34926;SDS011;21132;48.308;14.274;2022-12-10T02:25:40;23.23;;;14.75;;
34926;SDS011;21132;48.308;14.274;2022-12-10T02:30:56;23.48;;;14.55;;
34926;SDS011;21132;48.308;14.274;2022-12-10T02:33:25;22.88;;;14.35;;
34926;SDS011;21132;48.308;14.274;2022-12-10T02:35:53;22.95;;;13.40;;
34926;SDS011;21132;48.308;14.274;2022-12-10T02:38:25;27.73;;;17.30;;
34926;SDS011;21132;48.308;14.274;2022-12-10T02:40:57;26.50;;;15.50;;
34926;SDS011;21132;48.308;14.274;2022-12-10T02:43:29;26.17;;;16.25;;
34926;SDS011;21132;48.308;14.274;2022-12-10T02:45:58;26.15;;;15.77;;
34926;SDS011;21132;48.308;14.274;2022-12-10T02:48:27;29.45;;;17.30;;
34926;SDS011;21132;48.308;14.274;2022-12-10T02:50:54;24.52;;;15.43;;
34926;SDS011;21132;48.308;14.274;2022-12-10T02:53:20;24.48;;;15.38;;
34926;SDS011;21132;48.308;14.274;2022-12-10T02:58:36;20.65;;;13.60;;
34926;SDS011;21132;48.308;14.274;2022-12-10T03:04:36;26.17;;;16.67;;
34926;SDS011;21132;48.308;14.274;2022-12-10T03:07:16;36.60;;;20.15;;
34926;SDS011;21132;48.308;14.274;2022-12-10T03:09:51;31.58;;;19.67;;
34926;SDS011;21132;48.308;14.274;2022-12-10T03:12:25;35.17;;;21.75;;
34926;SDS011;21132;48.308;14.274;2022-12-10T03:15:00;29.20;;;17.83;;
34926;SDS011;21132;48.308;14.274;2022-12-10T03:17:30;30.50;;;19.33;;
34926;SDS011;21132;48.308;14.274;2022-12-10T03:19:58;31.17;;;17.70;;
34926;SDS011;21132;48.308;14.274;2022-12-10T03:22:25;30.15;;;19.27;;
34926;SDS011;21132;48.308;14.274;2022-12-10T03:24:52;30.08;;;17.63;;
34926;SDS011;21132;48.308;14.274;2022-12-10T03:27:19;27.60;;;17.75;;
34926;SDS011;21132;48.308;14.274;2022-12-10T03:29:49;30.40;;;18.30;;
34926;SDS011;21132;48.308;14.274;2022-12-10T03:32:18;31.83;;;18.83;;
34926;SDS011;21132;48.308;14.274;2022-12-10T03:34:46;42.58;;;22.55;;
34926;SDS011;21132;48.308;14.274;2022-12-10T03:37:16;42.33;;;21.98;;
34926;SDS011;21132;48.308;14.274;2022-12-10T03:39:43;43.85;;;22.23;;
34926;SDS011;21132;48.308;14.274;2022-12-10T03:42:09;42.03;;;21.92;;
34926;SDS011;21132;48.308;14.274;2022-12-10T03:44:36;35.35;;;19.23;;
34926;SDS011;21132;48.308;14.274;2022-12-10T03:47:03;39.40;;;21.48;;
34926;SDS011;21132;48.308;14.274;2022-12-10T03:49:30;43.05;;;22.70;;
34926;SDS011;21132;48.308;14.274;2022-12-10T03:51:56;37.97;;;21.13;;
34926;SDS011;21132;48.308;14.274;2022-12-10T03:54:22;35.28;;;20.98;;
34926;SDS011;21132;48.308;14.274;2022-12-10T03:56:48;33.92;;;20.52;;
34926;SDS011;21132;48.308;14.274;2022-12-10T03:59:14;29.27;;;18.73;;
34926;SDS011;21132;48.308;14.274;2022-12-10T04:01:40;31.95;;;17.38;;
34926;SDS011;21132;48.308;14.274;2022-12-10T04:04:06;29.67;;;18.33;;
34926;SDS011;21132;48.308;14.274;2022-12-10T04:06:32;27.55;;;17.92;;
34926;SDS011;21132;48.308;14.274;2022-12-10T04:08:58;31.05;;;17.88;;
34926;SDS011;21132;48.308;14.274;2022-12-10T04:11:24;27.88;;;17.27;;
34926;SDS011;21132;48.308;14.274;2022-12-10T04:13:51;27.95;;;16.88;;
34926;SDS011;21132;48.308;14.274;2022-12-10T04:16:35;26.67;;;17.30;;
34926;SDS011;21132;48.308;14.274;2022-12-10T04:19:05;25.55;;;16.58;;
34926;SDS011;21132;48.308;14.274;2022-12-10T04:21:34;30.13;;;17.35;;
34926;SDS011;21132;48.308;14.274;2022-12-10T04:24:21;29.70;;;17.90;;
34926;SDS011;21132;48.308;14.274;2022-12-10T04:27:11;33.60;;;19.42;;
34926;SDS011;21132;48.308;14.274;2022-12-10T04:29:40;32.17;;;19.50;;
34926;SDS011;21132;48.308;14.274;2022-12-10T04:32:06;29.05;;;17.95;;
34926;SDS011;21132;48.308;14.274;2022-12-10T04:34:33;24.05;;;15.13;;
34926;SDS011;21132;48.308;14.274;2022-12-10T04:36:59;21.35;;;14.15;;
34926;SDS011;21132;48.308;14.274;2022-12-10T04:39:27;20.02;;;12.57;;
34926;SDS011;21132;48.308;14.274;2022-12-10T04:41:53;20.13;;;13.05;;
34926;SDS011;21132;48.308;14.274;2022-12-10T04:44:19;18.00;;;11.60;;
34926;SDS011;21132;48.308;14.274;2022-12-10T04:46:45;19.10;;;10.93;;
34926;SDS011;21132;48.308;14.274;2022-12-10T04:49:12;19.23;;;12.13;;
34926;SDS011;21132;48.308;14.274;2022-12-10T04:51:38;17.38;;;10.75;;
34926;SDS011;21132;48.308;14.274;2022-12-10T04:54:05;16.27;;;10.80;;
34926;SDS011;21132;48.308;14.274;2022-12-10T04:56:31;18.25;;;11.45;;
34926;SDS011;21132;48.308;14.274;2022-12-10T04:58:58;17.58;;;11.00;;
34926;SDS011;21132;48.308;14.274;2022-12-10T05:01:24;17.75;;;11.45;;
34926;SDS011;21132;48.308;14.274;2022-12-10T05:03:51;19.20;;;11.95;;
34926;SDS011;21132;48.308;14.274;2022-12-10T05:06:18;23.27;;;14.00;;
34926;SDS011;21132;48.308;14.274;2022-12-10T05:08:44;20.45;;;12.88;;
34926;SDS011;21132;48.308;14.274;2022-12-10T05:11:15;20.40;;;12.63;;
34926;SDS011;21132;48.308;14.274;2022-12-10T05:13:42;23.70;;;13.57;;
34926;SDS011;21132;48.308;14.274;2022-12-10T05:16:09;19.98;;;12.40;;
34926;SDS011;21132;48.308;14.274;2022-12-10T05:18:36;19.15;;;12.52;;
34926;SDS011;21132;48.308;14.274;2022-12-10T05:21:03;18.95;;;12.05;;
34926;SDS011;21132;48.308;14.274;2022-12-10T05:23:32;25.00;;;14.25;;
34926;SDS011;21132;48.308;14.274;2022-12-10T05:26:02;24.13;;;14.73;;
34926;SDS011;21132;48.308;14.274;2022-12-10T05:28:30;23.92;;;14.07;;
34926;SDS011;21132;48.308;14.274;2022-12-10T05:30:58;22.23;;;13.38;;
34926;SDS011;21132;48.308;14.274;2022-12-10T05:33:24;19.00;;;12.52;;
34926;SDS011;21132;48.308;14.274;2022-12-10T05:36:10;22.60;;;13.18;;
34926;SDS011;21132;48.308;14.274;2022-12-10T05:38:37;24.85;;;13.80;;
34926;SDS011;21132;48.308;14.274;2022-12-10T05:41:08;21.50;;;13.18;;
34926;SDS011;21132;48.308;14.274;2022-12-10T05:43:38;26.08;;;14.60;;
34926;SDS011;21132;48.308;14.274;2022-12-10T05:46:05;32.67;;;16.65;;
34926;SDS011;21132;48.308;14.274;2022-12-10T05:48:33;30.20;;;17.73;;
34926;SDS011;21132;48.308;14.274;2022-12-10T05:51:03;25.75;;;14.40;;
34926;SDS011;21132;48.308;14.274;2022-12-10T05:53:30;31.23;;;17.05;;
34926;SDS011;21132;48.308;14.274;2022-12-10T05:56:01;34.38;;;19.30;;
34926;SDS011;21132;48.308;14.274;2022-12-10T05:58:28;35.60;;;18.23;;
34926;SDS011;21132;48.308;14.274;2022-12-10T06:00:55;30.20;;;16.30;;
34926;SDS011;21132;48.308;14.274;2022-12-10T06:03:22;30.25;;;16.52;;
34926;SDS011;21132;48.308;14.274;2022-12-10T06:05:48;29.67;;;15.45;;
34926;SDS011;21132;48.308;14.274;2022-12-10T06:08:14;37.58;;;18.88;;
34926;SDS011;21132;48.308;14.274;2022-12-10T06:10:40;32.28;;;16.60;;
34926;SDS011;21132;48.308;14.274;2022-12-10T06:13:05;38.38;;;18.48;;
34926;SDS011;21132;48.308;14.274;2022-12-10T06:15:31;41.70;;;19.63;;
34926;SDS011;21132;48.308;14.274;2022-12-10T06:17:58;37.95;;;19.00;;
34926;SDS011;21132;48.308;14.274;2022-12-10T06:20:24;41.55;;;20.67;;
34926;SDS011;21132;48.308;14.274;2022-12-10T06:22:51;42.85;;;19.73;;
34926;SDS011;21132;48.308;14.274;2022-12-10T06:25:18;38.25;;;19.63;;
34926;SDS011;21132;48.308;14.274;2022-12-10T06:27:44;38.88;;;20.77;;
34926;SDS011;21132;48.308;14.274;2022-12-10T06:30:10;35.58;;;19.10;;
34926;SDS011;21132;48.308;14.274;2022-12-10T06:32:36;40.45;;;19.85;;
34926;SDS011;21132;48.308;14.274;2022-12-10T06:35:02;36.28;;;18.85;;
34926;SDS011;21132;48.308;14.274;2022-12-10T06:37:29;35.80;;;17.60;;
34926;SDS011;21132;48.308;14.274;2022-12-10T06:39:55;31.88;;;17.33;;
34926;SDS011;21132;48.308;14.274;2022-12-10T06:42:20;29.70;;;16.58;;
34926;SDS011;21132;48.308;14.274;2022-12-10T06:44:46;36.33;;;18.30;;
34926;SDS011;21132;48.308;14.274;2022-12-10T06:47:13;34.70;;;17.77;;
34926;SDS011;21132;48.308;14.274;2022-12-10T06:49:39;30.30;;;16.77;;
34926;SDS011;21132;48.308;14.274;2022-12-10T06:52:05;34.15;;;16.33;;
34926;SDS011;21132;48.308;14.274;2022-12-10T06:54:32;35.20;;;17.92;;
34926;SDS011;21132;48.308;14.274;2022-12-10T06:56:58;27.67;;;15.27;;
34926;SDS011;21132;48.308;14.274;2022-12-10T06:59:24;30.35;;;16.40;;
34926;SDS011;21132;48.308;14.274;2022-12-10T07:01:50;28.35;;;15.35;;
34926;SDS011;21132;48.308;14.274;2022-12-10T07:04:16;30.42;;;16.42;;
34926;SDS011;21132;48.308;14.274;2022-12-10T07:06:42;25.70;;;15.60;;
34926;SDS011;21132;48.308;14.274;2022-12-10T07:09:08;26.77;;;15.70;;
34926;SDS011;21132;48.308;14.274;2022-12-10T07:11:34;28.38;;;15.77;;
34926;SDS011;21132;48.308;14.274;2022-12-10T07:14:01;30.55;;;16.13;;
34926;SDS011;21132;48.308;14.274;2022-12-10T07:16:28;31.88;;;18.27;;
34926;SDS011;21132;48.308;14.274;2022-12-10T07:18:56;35.38;;;18.90;;
34926;SDS011;21132;48.308;14.274;2022-12-10T07:21:28;38.95;;;18.85;;
34926;SDS011;21132;48.308;14.274;2022-12-10T07:24:01;38.83;;;20.05;;
34926;SDS011;21132;48.308;14.274;2022-12-10T07:26:35;40.85;;;20.10;;
34926;SDS011;21132;48.308;14.274;2022-12-10T07:29:03;43.88;;;24.00;;
34926;SDS011;21132;48.308;14.274;2022-12-10T07:31:30;47.58;;;23.20;;
34926;SDS011;21132;48.308;14.274;2022-12-10T07:33:57;46.38;;;22.08;;
34926;SDS011;21132;48.308;14.274;2022-12-10T07:36:24;43.95;;;23.58;;
34926;SDS011;21132;48.308;14.274;2022-12-10T07:38:51;42.10;;;21.50;;
34926;SDS011;21132;48.308;14.274;2022-12-10T07:41:18;40.40;;;19.73;;
34926;SDS011;21132;48.308;14.274;2022-12-10T07:43:44;42.70;;;21.38;;
34926;SDS011;21132;48.308;14.274;2022-12-10T07:46:15;43.55;;;21.45;;
34926;SDS011;21132;48.308;14.274;2022-12-10T07:48:43;40.83;;;20.65;;
34926;SDS011;21132;48.308;14.274;2022-12-10T07:51:10;42.40;;;22.92;;
34926;SDS011;21132;48.308;14.274;2022-12-10T07:53:37;44.30;;;22.52;;
34926;SDS011;21132;48.308;14.274;2022-12-10T07:56:03;41.53;;;20.45;;
34926;SDS011;21132;48.308;14.274;2022-12-10T07:58:29;35.03;;;18.95;;
34926;SDS011;21132;48.308;14.274;2022-12-10T08:00:55;36.38;;;18.70;;
34926;SDS011;21132;48.308;14.274;2022-12-10T08:03:20;31.85;;;17.08;;
34926;SDS011;21132;48.308;14.274;2022-12-10T08:05:46;27.95;;;16.85;;
34926;SDS011;21132;48.308;14.274;2022-12-10T08:08:12;40.50;;;19.77;;
34926;SDS011;21132;48.308;14.274;2022-12-10T08:10:38;40.38;;;21.17;;
34926;SDS011;21132;48.308;14.274;2022-12-10T08:13:05;37.95;;;19.25;;
34926;SDS011;21132;48.308;14.274;2022-12-10T08:15:31;37.97;;;18.88;;
34926;SDS011;21132;48.308;14.274;2022-12-10T08:17:57;38.22;;;19.65;;
34926;SDS011;21132;48.308;14.274;2022-12-10T08:20:23;37.70;;;20.67;;
34926;SDS011;21132;48.308;14.274;2022-12-10T08:22:50;36.60;;;20.73;;
34926;SDS011;21132;48.308;14.274;2022-12-10T08:25:16;39.42;;;21.42;;
34926;SDS011;21132;48.308;14.274;2022-12-10T08:27:42;45.08;;;22.70;;
34926;SDS011;21132;48.308;14.274;2022-12-10T08:30:08;42.95;;;23.75;;
34926;SDS011;21132;48.308;14.274;2022-12-10T08:32:34;47.65;;;24.65;;
34926;SDS011;21132;48.308;14.274;2022-12-10T08:35:00;46.50;;;23.15;;
34926;SDS011;21132;48.308;14.274;2022-12-10T08:37:26;50.03;;;25.08;;
34926;SDS011;21132;48.308;14.274;2022-12-10T08:39:52;46.78;;;24.55;;
34926;SDS011;21132;48.308;14.274;2022-12-10T08:42:18;45.90;;;24.35;;
34926;SDS011;21132;48.308;14.274;2022-12-10T08:44:44;48.75;;;23.55;;
34926;SDS011;21132;48.308;14.274;2022-12-10T08:47:09;44.75;;;23.63;;
34926;SDS011;21132;48.308;14.274;2022-12-10T08:49:35;47.17;;;24.33;;
34926;SDS011;21132;48.308;14.274;2022-12-10T08:52:01;47.13;;;24.08;;
34926;SDS011;21132;48.308;14.274;2022-12-10T08:54:27;44.90;;;23.75;;
34926;SDS011;21132;48.308;14.274;2022-12-10T08:56:53;51.45;;;26.40;;
34926;SDS011;21132;48.308;14.274;2022-12-10T08:59:19;51.60;;;25.85;;
34926;SDS011;21132;48.308;14.274;2022-12-10T09:01:45;58.60;;;28.45;;
34926;SDS011;21132;48.308;14.274;2022-12-10T09:04:10;60.05;;;27.23;;
34926;SDS011;21132;48.308;14.274;2022-12-10T09:06:37;53.13;;;25.73;;
34926;SDS011;21132;48.308;14.274;2022-12-10T09:09:03;52.65;;;26.02;;
34926;SDS011;21132;48.308;14.274;2022-12-10T09:11:31;55.58;;;27.58;;
34926;SDS011;21132;48.308;14.274;2022-12-10T09:13:58;59.53;;;27.15;;
34926;SDS011;21132;48.308;14.274;2022-12-10T09:16:32;60.15;;;29.00;;
34926;SDS011;21132;48.308;14.274;2022-12-10T09:19:00;61.85;;;30.00;;
34926;SDS011;21132;48.308;14.274;2022-12-10T09:21:27;60.65;;;30.05;;
34926;SDS011;21132;48.308;14.274;2022-12-10T09:23:55;54.67;;;27.30;;
34926;SDS011;21132;48.308;14.274;2022-12-10T09:26:22;54.83;;;29.60;;
34926;SDS011;21132;48.308;14.274;2022-12-10T09:28:49;56.05;;;28.52;;
34926;SDS011;21132;48.308;14.274;2022-12-10T09:31:15;55.00;;;28.92;;
34926;SDS011;21132;48.308;14.274;2022-12-10T09:33:43;58.92;;;29.10;;
34926;SDS011;21132;48.308;14.274;2022-12-10T09:36:10;59.13;;;28.45;;
34926;SDS011;21132;48.308;14.274;2022-12-10T09:38:37;55.78;;;27.65;;
34926;SDS011;21132;48.308;14.274;2022-12-10T09:41:10;57.50;;;29.00;;
34926;SDS011;21132;48.308;14.274;2022-12-10T09:48:54;60.10;;;29.63;;
34926;SDS011;21132;48.308;14.274;2022-12-10T09:51:23;57.75;;;28.35;;
34926;SDS011;21132;48.308;14.274;2022-12-10T09:54:01;63.67;;;31.42;;
34926;SDS011;21132;48.308;14.274;2022-12-10T09:56:31;61.13;;;30.80;;
34926;SDS011;21132;48.308;14.274;2022-12-10T09:59:01;63.03;;;31.73;;
34926;SDS011;21132;48.308;14.274;2022-12-10T10:01:33;61.22;;;31.88;;
34926;SDS011;21132;48.308;14.274;2022-12-10T10:04:01;57.72;;;28.83;;
34926;SDS011;21132;48.308;14.274;2022-12-10T10:06:28;60.20;;;29.73;;
34926;SDS011;21132;48.308;14.274;2022-12-10T10:08:56;60.42;;;29.27;;
34926;SDS011;21132;48.308;14.274;2022-12-10T10:11:26;52.10;;;27.02;;
34926;SDS011;21132;48.308;14.274;2022-12-10T10:14:10;58.47;;;28.60;;
34926;SDS011;21132;48.308;14.274;2022-12-10T10:16:50;59.15;;;28.55;;
34926;SDS011;21132;48.308;14.274;2022-12-10T10:19:28;54.70;;;28.17;;
34926;SDS011;21132;48.308;14.274;2022-12-10T10:21:56;54.85;;;27.75;;
34926;SDS011;21132;48.308;14.274;2022-12-10T10:24:28;48.78;;;26.45;;
34926;SDS011;21132;48.308;14.274;2022-12-10T10:27:11;54.95;;;28.48;;
34926;SDS011;21132;48.308;14.274;2022-12-10T10:29:44;57.72;;;27.75;;
34926;SDS011;21132;48.308;14.274;2022-12-10T10:32:16;51.65;;;27.77;;
34926;SDS011;21132;48.308;14.274;2022-12-10T10:34:44;48.58;;;26.40;;
34926;SDS011;21132;48.308;14.274;2022-12-10T10:37:21;52.38;;;26.38;;
34926;SDS011;21132;48.308;14.274;2022-12-10T10:39:50;50.50;;;26.25;;
34926;SDS011;21132;48.308;14.274;2022-12-10T10:42:34;49.15;;;25.85;;
34926;SDS011;21132;48.308;14.274;2022-12-10T10:45:02;47.92;;;26.25;;
34926;SDS011;21132;48.308;14.274;2022-12-10T10:47:48;49.47;;;25.73;;
34926;SDS011;21132;48.308;14.274;2022-12-10T10:50:27;51.92;;;27.90;;
34926;SDS011;21132;48.308;14.274;2022-12-10T10:52:53;50.40;;;25.73;;
34926;SDS011;21132;48.308;14.274;2022-12-10T10:55:32;47.60;;;24.50;;
34926;SDS011;21132;48.308;14.274;2022-12-10T10:58:00;45.63;;;24.25;;
34926;SDS011;21132;48.308;14.274;2022-12-10T11:00:26;43.30;;;24.02;;
34926;SDS011;21132;48.308;14.274;2022-12-10T11:02:52;39.17;;;23.17;;
34926;SDS011;21132;48.308;14.274;2022-12-10T11:05:22;39.70;;;23.08;;
34926;SDS011;21132;48.308;14.274;2022-12-10T11:07:57;44.35;;;23.85;;
34926;SDS011;21132;48.308;14.274;2022-12-10T11:10:27;45.13;;;24.27;;
34926;SDS011;21132;48.308;14.274;2022-12-10T11:13:04;44.72;;;23.42;;
34926;SDS011;21132;48.308;14.274;2022-12-10T11:15:39;45.58;;;24.50;;
34926;SDS011;21132;48.308;14.274;2022-12-10T11:23:42;50.20;;;25.70;;
34926;SDS011;21132;48.308;14.274;2022-12-10T11:26:16;52.08;;;27.10;;
34926;SDS011;21132;48.308;14.274;2022-12-10T11:37:06;43.85;;;23.77;;
34926;SDS011;21132;48.308;14.274;2022-12-10T11:45:21;49.92;;;24.40;;
34926;SDS011;21132;48.308;14.274;2022-12-10T11:50:30;42.60;;;23.30;;
34926;SDS011;21132;48.308;14.274;2022-12-10T12:04:10;52.28;;;25.83;;
34926;SDS011;21132;48.308;14.274;2022-12-10T12:06:52;48.40;;;24.83;;
34926;SDS011;21132;48.308;14.274;2022-12-10T12:18:22;40.90;;;22.65;;
34926;SDS011;21132;48.308;14.274;2022-12-10T12:20:49;45.88;;;23.30;;
34926;SDS011;21132;48.308;14.274;2022-12-10T12:26:38;47.80;;;23.92;;
34926;SDS011;21132;48.308;14.274;2022-12-10T12:29:18;43.78;;;23.13;;
34926;SDS011;21132;48.308;14.274;2022-12-10T12:31:49;47.78;;;24.88;;
34926;SDS011;21132;48.308;14.274;2022-12-10T12:37:17;42.30;;;21.95;;
34926;SDS011;21132;48.308;14.274;2022-12-10T12:43:10;41.53;;;21.05;;
34926;SDS011;21132;48.308;14.274;2022-12-10T12:48:14;44.70;;;21.85;;
34926;SDS011;21132;48.308;14.274;2022-12-10T12:50:49;37.45;;;20.67;;
34926;SDS011;21132;48.308;14.274;2022-12-10T12:53:17;35.63;;;19.63;;
34926;SDS011;21132;48.308;14.274;2022-12-10T12:58:17;36.42;;;19.52;;
34926;SDS011;21132;48.308;14.274;2022-12-10T13:00:50;34.35;;;20.00;;
34926;SDS011;21132;48.308;14.274;2022-12-10T13:03:34;34.90;;;19.40;;
34926;SDS011;21132;48.308;14.274;2022-12-10T13:08:45;35.63;;;18.77;;
34926;SDS011;21132;48.308;14.274;2022-12-10T13:11:33;34.72;;;19.92;;
34926;SDS011;21132;48.308;14.274;2022-12-10T13:27:17;43.40;;;22.35;;
34926;SDS011;21132;48.308;14.274;2022-12-10T13:32:22;40.38;;;21.50;;
34926;SDS011;21132;48.308;14.274;2022-12-10T13:37:33;52.50;;;24.98;;
34926;SDS011;21132;48.308;14.274;2022-12-10T13:40:18;51.45;;;25.38;;
34926;SDS011;21132;48.308;14.274;2022-12-10T13:49:27;58.97;;;26.98;;
34926;SDS011;21132;48.308;14.274;2022-12-10T13:51:58;65.43;;;29.75;;
34926;SDS011;21132;48.308;14.274;2022-12-10T14:02:57;52.03;;;27.10;;
34926;SDS011;21132;48.308;14.274;2022-12-10T14:08:35;49.85;;;26.35;;
34926;SDS011;21132;48.308;14.274;2022-12-10T14:11:04;50.50;;;24.52;;
34926;SDS011;21132;48.308;14.274;2022-12-10T14:13:39;49.72;;;25.17;;
34926;SDS011;21132;48.308;14.274;2022-12-10T14:16:12;50.42;;;24.58;;
34926;SDS011;21132;48.308;14.274;2022-12-10T14:18:51;44.58;;;23.77;;
34926;SDS011;21132;48.308;14.274;2022-12-10T14:21:20;50.47;;;25.48;;
34926;SDS011;21132;48.308;14.274;2022-12-10T14:23:47;46.97;;;23.85;;
34926;SDS011;21132;48.308;14.274;2022-12-10T14:26:15;49.00;;;24.50;;
34926;SDS011;21132;48.308;14.274;2022-12-10T14:28:45;52.10;;;25.95;;
34926;SDS011;21132;48.308;14.274;2022-12-10T14:31:19;43.75;;;23.50;;
34926;SDS011;21132;48.308;14.274;2022-12-10T14:33:49;47.15;;;25.30;;
34926;SDS011;21132;48.308;14.274;2022-12-10T14:36:17;47.58;;;25.58;;
34926;SDS011;21132;48.308;14.274;2022-12-10T14:38:52;48.75;;;23.80;;
34926;SDS011;21132;48.308;14.274;2022-12-10T14:41:20;47.95;;;24.88;;
34926;SDS011;21132;48.308;14.274;2022-12-10T14:43:48;43.28;;;23.38;;
34926;SDS011;21132;48.308;14.274;2022-12-10T14:46:24;48.88;;;25.23;;
34926;SDS011;21132;48.308;14.274;2022-12-10T14:48:53;49.17;;;24.80;;
34926;SDS011;21132;48.308;14.274;2022-12-10T14:51:21;42.60;;;22.75;;
34926;SDS011;21132;48.308;14.274;2022-12-10T14:53:50;43.42;;;24.73;;
34926;SDS011;21132;48.308;14.274;2022-12-10T15:03:59;39.92;;;22.77;;
34926;SDS011;21132;48.308;14.274;2022-12-10T15:06:28;40.72;;;21.95;;
34926;SDS011;21132;48.308;14.274;2022-12-10T15:08:59;42.53;;;23.33;;
34926;SDS011;21132;48.308;14.274;2022-12-10T15:11:25;44.08;;;23.67;;
34926;SDS011;21132;48.308;14.274;2022-12-10T15:13:53;45.85;;;23.33;;
34926;SDS011;21132;48.308;14.274;2022-12-10T15:16:38;38.28;;;21.48;;
34926;SDS011;21132;48.308;14.274;2022-12-10T15:21:50;46.60;;;25.65;;
34926;SDS011;21132;48.308;14.274;2022-12-10T15:24:27;43.53;;;23.83;;
34926;SDS011;21132;48.308;14.274;2022-12-10T15:27:01;50.22;;;25.63;;
34926;SDS011;21132;48.308;14.274;2022-12-10T15:29:39;45.90;;;24.63;;
34926;SDS011;21132;48.308;14.274;2022-12-10T15:32:08;46.85;;;26.50;;
34926;SDS011;21132;48.308;14.274;2022-12-10T15:34:44;48.05;;;25.27;;
34926;SDS011;21132;48.308;14.274;2022-12-10T15:37:25;47.78;;;25.20;;
34926;SDS011;21132;48.308;14.274;2022-12-10T15:39:59;52.85;;;26.58;;
34926;SDS011;21132;48.308;14.274;2022-12-10T15:42:35;43.08;;;22.33;;
34926;SDS011;21132;48.308;14.274;2022-12-10T15:47:42;49.88;;;25.48;;
34926;SDS011;21132;48.308;14.274;2022-12-10T15:50:08;52.42;;;26.65;;
34926;SDS011;21132;48.308;14.274;2022-12-10T15:52:35;52.55;;;24.98;;
34926;SDS011;21132;48.308;14.274;2022-12-10T15:55:01;61.38;;;28.52;;
34926;SDS011;21132;48.308;14.274;2022-12-10T15:57:31;53.22;;;29.15;;
34926;SDS011;21132;48.308;14.274;2022-12-10T15:59:59;68.00;;;30.13;;
34926;SDS011;21132;48.308;14.274;2022-12-10T16:05:24;40.53;;;21.98;;
34926;SDS011;21132;48.308;14.274;2022-12-10T16:07:52;40.70;;;23.10;;
34926;SDS011;21132;48.308;14.274;2022-12-10T16:10:21;49.58;;;26.35;;
34926;SDS011;21132;48.308;14.274;2022-12-10T16:12:49;46.65;;;25.67;;
34926;SDS011;21132;48.308;14.274;2022-12-10T16:15:26;49.25;;;26.08;;
34926;SDS011;21132;48.308;14.274;2022-12-10T16:17:55;40.90;;;22.65;;
34926;SDS011;21132;48.308;14.274;2022-12-10T16:20:26;47.45;;;26.15;;
34926;SDS011;21132;48.308;14.274;2022-12-10T16:22:54;53.25;;;27.52;;
34926;SDS011;21132;48.308;14.274;2022-12-10T16:25:22;48.60;;;26.17;;
34926;SDS011;21132;48.308;14.274;2022-12-10T16:27:51;54.53;;;28.88;;
34926;SDS011;21132;48.308;14.274;2022-12-10T16:30:19;53.15;;;28.05;;
34926;SDS011;21132;48.308;14.274;2022-12-10T16:32:50;49.55;;;27.15;;
34926;SDS011;21132;48.308;14.274;2022-12-10T16:35:17;51.53;;;26.60;;
34926;SDS011;21132;48.308;14.274;2022-12-10T16:37:46;56.40;;;28.27;;
34926;SDS011;21132;48.308;14.274;2022-12-10T16:40:21;48.33;;;26.50;;